Terminal Aerodrome Forecast
Issued by NWS Spokane, WA

Home | Current Version | Previous Version | Text Only | Print | Product List | Glossary On
Versions: 1 2 3 4 5 6 7 8 9 10 11 12 13 14
000
FTUS46 KOTX 231139
TAFEAT
TAF
KEAT 231139Z 2312/2412 30010KT P6SM SCT200
     FM231900 30006KT P6SM SKC
     FM240000 30012KT P6SM SKC
     FM240600 31006KT P6SM SKC=

USA.gov is the U.S. government's official web portal to all federal, state and local government web resources and services.